sensor_id;sensor_type;location;lat;lon;timestamp;P1;durP1;ratioP1;P2;durP2;ratioP2
13733;SDS011;43298;52.560;13.508;2023-07-24T00:00:16;1.63;;;1.20;;
13733;SDS011;43298;52.560;13.508;2023-07-24T00:02:42;1.27;;;1.17;;
13733;SDS011;43298;52.560;13.508;2023-07-24T00:05:08;2.08;;;1.52;;
13733;SDS011;43298;52.560;13.508;2023-07-24T00:07:35;1.73;;;1.38;;
13733;SDS011;43298;52.560;13.508;2023-07-24T00:10:01;1.90;;;1.23;;
13733;SDS011;43298;52.560;13.508;2023-07-24T00:12:28;2.17;;;1.42;;
13733;SDS011;43298;52.560;13.508;2023-07-24T00:14:54;1.45;;;1.27;;
13733;SDS011;43298;52.560;13.508;2023-07-24T00:17:20;6.10;;;1.67;;
13733;SDS011;43298;52.560;13.508;2023-07-24T00:19:46;2.10;;;1.33;;
13733;SDS011;43298;52.560;13.508;2023-07-24T00:22:12;2.35;;;1.50;;
13733;SDS011;43298;52.560;13.508;2023-07-24T00:24:38;3.25;;;1.58;;
13733;SDS011;43298;52.560;13.508;2023-07-24T00:27:03;1.25;;;1.15;;
13733;SDS011;43298;52.560;13.508;2023-07-24T00:29:30;1.70;;;1.08;;
13733;SDS011;43298;52.560;13.508;2023-07-24T00:31:55;2.05;;;1.48;;
13733;SDS011;43298;52.560;13.508;2023-07-24T00:34:21;1.25;;;1.13;;
13733;SDS011;43298;52.560;13.508;2023-07-24T00:36:47;4.95;;;1.50;;
13733;SDS011;43298;52.560;13.508;2023-07-24T00:39:14;2.60;;;1.17;;
13733;SDS011;43298;52.560;13.508;2023-07-24T00:41:40;1.75;;;1.17;;
13733;SDS011;43298;52.560;13.508;2023-07-24T00:44:07;1.52;;;1.42;;
13733;SDS011;43298;52.560;13.508;2023-07-24T00:46:33;2.38;;;1.60;;
13733;SDS011;43298;52.560;13.508;2023-07-24T00:49:00;1.90;;;1.40;;
13733;SDS011;43298;52.560;13.508;2023-07-24T00:51:27;1.85;;;1.30;;
13733;SDS011;43298;52.560;13.508;2023-07-24T00:53:54;1.50;;;1.20;;
13733;SDS011;43298;52.560;13.508;2023-07-24T00:56:22;2.67;;;1.52;;
13733;SDS011;43298;52.560;13.508;2023-07-24T00:58:48;1.50;;;1.38;;
13733;SDS011;43298;52.560;13.508;2023-07-24T01:01:14;1.58;;;1.30;;
13733;SDS011;43298;52.560;13.508;2023-07-24T01:03:42;1.83;;;1.33;;
13733;SDS011;43298;52.560;13.508;2023-07-24T01:06:09;1.83;;;1.30;;
13733;SDS011;43298;52.560;13.508;2023-07-24T01:08:35;1.33;;;1.13;;
13733;SDS011;43298;52.560;13.508;2023-07-24T01:11:03;4.88;;;1.50;;
13733;SDS011;43298;52.560;13.508;2023-07-24T01:13:50;1.33;;;1.15;;
13733;SDS011;43298;52.560;13.508;2023-07-24T01:16:25;3.13;;;1.30;;
13733;SDS011;43298;52.560;13.508;2023-07-24T01:18:58;1.20;;;1.10;;
13733;SDS011;43298;52.560;13.508;2023-07-24T01:21:29;1.55;;;1.25;;
13733;SDS011;43298;52.560;13.508;2023-07-24T01:27:23;3.00;;;1.70;;
13733;SDS011;43298;52.560;13.508;2023-07-24T01:29:49;2.42;;;1.45;;
13733;SDS011;43298;52.560;13.508;2023-07-24T01:32:15;1.60;;;1.38;;
13733;SDS011;43298;52.560;13.508;2023-07-24T01:34:41;1.38;;;1.15;;
13733;SDS011;43298;52.560;13.508;2023-07-24T01:37:07;1.52;;;1.40;;
13733;SDS011;43298;52.560;13.508;2023-07-24T01:39:35;2.03;;;1.25;;
13733;SDS011;43298;52.560;13.508;2023-07-24T01:42:01;2.83;;;1.33;;
13733;SDS011;43298;52.560;13.508;2023-07-24T01:44:27;2.15;;;1.52;;
13733;SDS011;43298;52.560;13.508;2023-07-24T01:46:53;0.90;;;0.80;;
13733;SDS011;43298;52.560;13.508;2023-07-24T01:49:19;1.50;;;1.17;;
13733;SDS011;43298;52.560;13.508;2023-07-24T01:51:45;2.13;;;1.20;;
13733;SDS011;43298;52.560;13.508;2023-07-24T01:54:11;2.70;;;1.67;;
13733;SDS011;43298;52.560;13.508;2023-07-24T01:56:36;1.13;;;1.02;;
13733;SDS011;43298;52.560;13.508;2023-07-24T01:59:04;2.00;;;1.42;;
13733;SDS011;43298;52.560;13.508;2023-07-24T02:01:31;2.20;;;1.58;;
13733;SDS011;43298;52.560;13.508;2023-07-24T02:03:57;3.13;;;1.30;;
13733;SDS011;43298;52.560;13.508;2023-07-24T02:06:23;1.35;;;1.25;;
13733;SDS011;43298;52.560;13.508;2023-07-24T02:08:48;1.75;;;1.30;;
13733;SDS011;43298;52.560;13.508;2023-07-24T02:11:16;1.60;;;1.15;;
13733;SDS011;43298;52.560;13.508;2023-07-24T02:13:45;2.25;;;1.40;;
13733;SDS011;43298;52.560;13.508;2023-07-24T02:16:12;1.20;;;1.08;;
13733;SDS011;43298;52.560;13.508;2023-07-24T02:18:42;2.63;;;1.08;;
13733;SDS011;43298;52.560;13.508;2023-07-24T02:21:08;1.60;;;1.02;;
13733;SDS011;43298;52.560;13.508;2023-07-24T02:23:35;1.13;;;0.90;;
13733;SDS011;43298;52.560;13.508;2023-07-24T02:26:01;1.60;;;1.10;;
13733;SDS011;43298;52.560;13.508;2023-07-24T02:28:27;2.35;;;1.25;;
13733;SDS011;43298;52.560;13.508;2023-07-24T02:30:52;1.50;;;1.20;;
13733;SDS011;43298;52.560;13.508;2023-07-24T02:33:22;1.67;;;1.33;;
13733;SDS011;43298;52.560;13.508;2023-07-24T02:35:48;2.05;;;1.50;;
13733;SDS011;43298;52.560;13.508;2023-07-24T02:38:17;1.27;;;1.17;;
13733;SDS011;43298;52.560;13.508;2023-07-24T02:40:43;1.27;;;1.13;;
13733;SDS011;43298;52.560;13.508;2023-07-24T02:43:10;1.30;;;1.20;;
13733;SDS011;43298;52.560;13.508;2023-07-24T02:45:38;1.75;;;1.40;;
13733;SDS011;43298;52.560;13.508;2023-07-24T02:48:04;3.58;;;1.40;;
13733;SDS011;43298;52.560;13.508;2023-07-24T02:50:32;1.33;;;1.20;;
13733;SDS011;43298;52.560;13.508;2023-07-24T02:52:58;1.38;;;1.10;;
13733;SDS011;43298;52.560;13.508;2023-07-24T02:55:24;1.50;;;1.00;;
13733;SDS011;43298;52.560;13.508;2023-07-24T02:57:50;6.28;;;1.48;;
13733;SDS011;43298;52.560;13.508;2023-07-24T03:00:16;1.48;;;0.90;;
13733;SDS011;43298;52.560;13.508;2023-07-24T03:02:42;2.17;;;1.20;;
13733;SDS011;43298;52.560;13.508;2023-07-24T03:05:08;4.38;;;0.93;;
13733;SDS011;43298;52.560;13.508;2023-07-24T03:07:34;1.60;;;1.42;;
13733;SDS011;43298;52.560;13.508;2023-07-24T03:10:00;2.70;;;1.23;;
13733;SDS011;43298;52.560;13.508;2023-07-24T03:12:27;1.55;;;1.20;;
13733;SDS011;43298;52.560;13.508;2023-07-24T03:14:53;1.73;;;1.08;;
13733;SDS011;43298;52.560;13.508;2023-07-24T03:17:19;3.85;;;1.05;;
13733;SDS011;43298;52.560;13.508;2023-07-24T03:19:47;4.85;;;1.05;;
13733;SDS011;43298;52.560;13.508;2023-07-24T03:22:14;0.88;;;0.80;;
13733;SDS011;43298;52.560;13.508;2023-07-24T03:24:40;0.98;;;0.88;;
13733;SDS011;43298;52.560;13.508;2023-07-24T03:27:06;1.27;;;1.17;;
13733;SDS011;43298;52.560;13.508;2023-07-24T03:29:32;1.42;;;1.05;;
13733;SDS011;43298;52.560;13.508;2023-07-24T03:31:58;1.40;;;1.10;;
13733;SDS011;43298;52.560;13.508;2023-07-24T03:34:23;1.63;;;1.10;;
13733;SDS011;43298;52.560;13.508;2023-07-24T03:36:49;2.85;;;1.23;;
13733;SDS011;43298;52.560;13.508;2023-07-24T03:39:15;1.30;;;0.93;;
13733;SDS011;43298;52.560;13.508;2023-07-24T03:41:41;1.63;;;1.10;;
13733;SDS011;43298;52.560;13.508;2023-07-24T03:44:08;1.10;;;0.98;;
13733;SDS011;43298;52.560;13.508;2023-07-24T03:46:34;1.00;;;0.73;;
13733;SDS011;43298;52.560;13.508;2023-07-24T03:49:00;0.70;;;0.70;;
13733;SDS011;43298;52.560;13.508;2023-07-24T03:51:26;0.98;;;0.73;;
13733;SDS011;43298;52.560;13.508;2023-07-24T03:53:52;0.88;;;0.82;;
13733;SDS011;43298;52.560;13.508;2023-07-24T03:56:18;0.90;;;0.85;;
13733;SDS011;43298;52.560;13.508;2023-07-24T03:58:44;1.10;;;1.00;;
13733;SDS011;43298;52.560;13.508;2023-07-24T04:01:10;1.08;;;0.82;;
13733;SDS011;43298;52.560;13.508;2023-07-24T04:03:36;1.08;;;0.98;;
13733;SDS011;43298;52.560;13.508;2023-07-24T04:06:02;1.33;;;0.90;;
13733;SDS011;43298;52.560;13.508;2023-07-24T04:08:28;1.52;;;1.10;;
13733;SDS011;43298;52.560;13.508;2023-07-24T04:10:54;0.80;;;0.80;;
13733;SDS011;43298;52.560;13.508;2023-07-24T04:13:22;1.65;;;1.00;;
13733;SDS011;43298;52.560;13.508;2023-07-24T04:15:48;0.88;;;0.88;;
13733;SDS011;43298;52.560;13.508;2023-07-24T04:18:15;1.33;;;1.05;;
13733;SDS011;43298;52.560;13.508;2023-07-24T04:20:41;1.23;;;0.73;;
13733;SDS011;43298;52.560;13.508;2023-07-24T04:23:07;0.63;;;0.63;;
13733;SDS011;43298;52.560;13.508;2023-07-24T04:25:32;0.55;;;0.50;;
13733;SDS011;43298;52.560;13.508;2023-07-24T04:27:59;1.00;;;0.75;;
13733;SDS011;43298;52.560;13.508;2023-07-24T04:30:25;1.15;;;0.73;;
13733;SDS011;43298;52.560;13.508;2023-07-24T04:32:50;0.85;;;0.82;;
13733;SDS011;43298;52.560;13.508;2023-07-24T04:35:16;2.20;;;1.10;;
13733;SDS011;43298;52.560;13.508;2023-07-24T04:37:42;1.20;;;0.88;;
13733;SDS011;43298;52.560;13.508;2023-07-24T04:40:08;2.70;;;1.00;;
13733;SDS011;43298;52.560;13.508;2023-07-24T04:42:35;1.40;;;0.82;;
13733;SDS011;43298;52.560;13.508;2023-07-24T04:45:01;2.15;;;1.17;;
13733;SDS011;43298;52.560;13.508;2023-07-24T04:47:27;0.43;;;0.43;;
13733;SDS011;43298;52.560;13.508;2023-07-24T04:49:53;0.98;;;0.80;;
13733;SDS011;43298;52.560;13.508;2023-07-24T04:52:20;1.33;;;1.15;;
13733;SDS011;43298;52.560;13.508;2023-07-24T04:54:46;0.80;;;0.80;;
13733;SDS011;43298;52.560;13.508;2023-07-24T04:57:11;4.07;;;0.90;;
13733;SDS011;43298;52.560;13.508;2023-07-24T04:59:37;1.33;;;0.73;;
13733;SDS011;43298;52.560;13.508;2023-07-24T05:02:03;2.88;;;0.90;;
13733;SDS011;43298;52.560;13.508;2023-07-24T05:04:29;1.95;;;0.85;;
13733;SDS011;43298;52.560;13.508;2023-07-24T05:06:55;0.85;;;0.77;;
13733;SDS011;43298;52.560;13.508;2023-07-24T05:09:20;0.52;;;0.52;;
13733;SDS011;43298;52.560;13.508;2023-07-24T05:11:46;1.05;;;0.90;;
13733;SDS011;43298;52.560;13.508;2023-07-24T05:14:12;1.52;;;0.93;;
13733;SDS011;43298;52.560;13.508;2023-07-24T05:16:38;1.38;;;0.98;;
13733;SDS011;43298;52.560;13.508;2023-07-24T05:19:04;0.88;;;0.77;;
13733;SDS011;43298;52.560;13.508;2023-07-24T05:21:29;0.95;;;0.80;;
13733;SDS011;43298;52.560;13.508;2023-07-24T05:23:55;1.85;;;0.90;;
13733;SDS011;43298;52.560;13.508;2023-07-24T05:26:21;1.05;;;0.70;;
13733;SDS011;43298;52.560;13.508;2023-07-24T05:28:47;0.70;;;0.50;;
13733;SDS011;43298;52.560;13.508;2023-07-24T05:31:13;2.45;;;0.90;;
13733;SDS011;43298;52.560;13.508;2023-07-24T05:33:38;0.95;;;0.90;;
13733;SDS011;43298;52.560;13.508;2023-07-24T05:36:04;0.88;;;0.50;;
13733;SDS011;43298;52.560;13.508;2023-07-24T05:38:30;1.02;;;0.65;;
13733;SDS011;43298;52.560;13.508;2023-07-24T05:41:00;0.68;;;0.60;;
13733;SDS011;43298;52.560;13.508;2023-07-24T05:43:27;0.70;;;0.70;;
13733;SDS011;43298;52.560;13.508;2023-07-24T05:45:55;1.00;;;0.73;;
13733;SDS011;43298;52.560;13.508;2023-07-24T05:48:22;0.70;;;0.68;;
13733;SDS011;43298;52.560;13.508;2023-07-24T05:50:49;1.05;;;0.85;;
13733;SDS011;43298;52.560;13.508;2023-07-24T05:53:15;1.13;;;0.93;;
13733;SDS011;43298;52.560;13.508;2023-07-24T05:55:42;2.28;;;0.98;;
13733;SDS011;43298;52.560;13.508;2023-07-24T05:58:08;1.08;;;0.70;;
13733;SDS011;43298;52.560;13.508;2023-07-24T06:00:34;0.50;;;0.50;;
13733;SDS011;43298;52.560;13.508;2023-07-24T06:03:01;0.93;;;0.75;;
13733;SDS011;43298;52.560;13.508;2023-07-24T06:05:28;1.10;;;1.00;;
13733;SDS011;43298;52.560;13.508;2023-07-24T06:07:54;1.75;;;0.77;;
13733;SDS011;43298;52.560;13.508;2023-07-24T06:10:20;0.77;;;0.75;;
13733;SDS011;43298;52.560;13.508;2023-07-24T06:12:46;0.90;;;0.77;;
13733;SDS011;43298;52.560;13.508;2023-07-24T06:17:42;0.50;;;0.50;;
13733;SDS011;43298;52.560;13.508;2023-07-24T06:20:07;1.92;;;0.90;;
13733;SDS011;43298;52.560;13.508;2023-07-24T06:22:34;1.02;;;0.73;;
13733;SDS011;43298;52.560;13.508;2023-07-24T06:24:59;0.63;;;0.57;;
13733;SDS011;43298;52.560;13.508;2023-07-24T06:27:25;0.50;;;0.50;;
13733;SDS011;43298;52.560;13.508;2023-07-24T06:29:51;1.33;;;0.95;;
13733;SDS011;43298;52.560;13.508;2023-07-24T06:32:17;0.80;;;0.70;;
13733;SDS011;43298;52.560;13.508;2023-07-24T06:34:43;0.63;;;0.50;;
13733;SDS011;43298;52.560;13.508;2023-07-24T06:37:08;1.92;;;0.77;;
13733;SDS011;43298;52.560;13.508;2023-07-24T06:39:34;1.05;;;0.85;;
13733;SDS011;43298;52.560;13.508;2023-07-24T06:42:00;1.55;;;0.77;;
13733;SDS011;43298;52.560;13.508;2023-07-24T06:44:26;1.38;;;0.95;;
13733;SDS011;43298;52.560;13.508;2023-07-24T06:46:52;0.80;;;0.77;;
13733;SDS011;43298;52.560;13.508;2023-07-24T06:49:17;1.40;;;1.13;;
13733;SDS011;43298;52.560;13.508;2023-07-24T06:51:43;0.95;;;0.80;;
13733;SDS011;43298;52.560;13.508;2023-07-24T06:54:09;1.35;;;1.10;;
13733;SDS011;43298;52.560;13.508;2023-07-24T06:56:36;0.70;;;0.70;;
13733;SDS011;43298;52.560;13.508;2023-07-24T06:59:01;0.85;;;0.80;;
13733;SDS011;43298;52.560;13.508;2023-07-24T07:01:27;2.13;;;1.35;;
13733;SDS011;43298;52.560;13.508;2023-07-24T07:03:53;0.85;;;0.77;;
13733;SDS011;43298;52.560;13.508;2023-07-24T07:08:48;2.28;;;0.85;;
13733;SDS011;43298;52.560;13.508;2023-07-24T07:11:14;1.38;;;0.90;;
13733;SDS011;43298;52.560;13.508;2023-07-24T07:13:40;0.77;;;0.68;;
13733;SDS011;43298;52.560;13.508;2023-07-24T07:16:06;0.70;;;0.70;;
13733;SDS011;43298;52.560;13.508;2023-07-24T07:18:32;1.10;;;1.00;;
13733;SDS011;43298;52.560;13.508;2023-07-24T07:20:57;1.15;;;0.88;;
13733;SDS011;43298;52.560;13.508;2023-07-24T07:23:23;1.50;;;1.05;;
13733;SDS011;43298;52.560;13.508;2023-07-24T07:25:50;1.25;;;1.10;;
13733;SDS011;43298;52.560;13.508;2023-07-24T07:28:16;1.25;;;0.80;;
13733;SDS011;43298;52.560;13.508;2023-07-24T07:30:43;1.10;;;1.00;;
13733;SDS011;43298;52.560;13.508;2023-07-24T07:33:09;1.83;;;1.27;;
13733;SDS011;43298;52.560;13.508;2023-07-24T07:35:35;1.25;;;1.00;;
13733;SDS011;43298;52.560;13.508;2023-07-24T07:38:02;0.80;;;0.80;;
13733;SDS011;43298;52.560;13.508;2023-07-24T07:40:28;1.23;;;0.90;;
13733;SDS011;43298;52.560;13.508;2023-07-24T07:42:55;3.53;;;0.90;;
13733;SDS011;43298;52.560;13.508;2023-07-24T07:45:22;1.30;;;1.15;;
13733;SDS011;43298;52.560;13.508;2023-07-24T07:47:48;2.08;;;0.90;;
13733;SDS011;43298;52.560;13.508;2023-07-24T07:50:14;1.00;;;0.77;;
13733;SDS011;43298;52.560;13.508;2023-07-24T07:52:40;1.00;;;0.90;;
13733;SDS011;43298;52.560;13.508;2023-07-24T07:55:06;1.48;;;0.98;;
13733;SDS011;43298;52.560;13.508;2023-07-24T07:57:36;0.93;;;0.77;;
13733;SDS011;43298;52.560;13.508;2023-07-24T08:00:03;1.15;;;0.95;;
13733;SDS011;43298;52.560;13.508;2023-07-24T08:02:33;1.27;;;0.98;;
13733;SDS011;43298;52.560;13.508;2023-07-24T08:04:59;1.00;;;0.90;;
13733;SDS011;43298;52.560;13.508;2023-07-24T08:07:25;1.17;;;1.08;;
13733;SDS011;43298;52.560;13.508;2023-07-24T08:09:51;0.88;;;0.88;;
13733;SDS011;43298;52.560;13.508;2023-07-24T08:12:17;0.80;;;0.80;;
13733;SDS011;43298;52.560;13.508;2023-07-24T08:14:42;1.35;;;0.95;;
13733;SDS011;43298;52.560;13.508;2023-07-24T08:17:08;1.08;;;0.95;;
13733;SDS011;43298;52.560;13.508;2023-07-24T08:19:34;1.52;;;0.85;;
13733;SDS011;43298;52.560;13.508;2023-07-24T08:22:00;0.90;;;0.82;;
13733;SDS011;43298;52.560;13.508;2023-07-24T08:24:26;0.95;;;0.77;;
13733;SDS011;43298;52.560;13.508;2023-07-24T08:26:51;1.73;;;1.02;;
13733;SDS011;43298;52.560;13.508;2023-07-24T08:29:17;1.02;;;0.80;;
13733;SDS011;43298;52.560;13.508;2023-07-24T08:31:43;1.27;;;0.93;;
13733;SDS011;43298;52.560;13.508;2023-07-24T08:34:09;1.58;;;1.15;;
13733;SDS011;43298;52.560;13.508;2023-07-24T08:36:35;1.20;;;1.00;;
13733;SDS011;43298;52.560;13.508;2023-07-24T08:39:02;1.05;;;0.88;;
13733;SDS011;43298;52.560;13.508;2023-07-24T08:41:28;0.90;;;0.90;;
13733;SDS011;43298;52.560;13.508;2023-07-24T08:43:54;1.00;;;0.73;;
13733;SDS011;43298;52.560;13.508;2023-07-24T08:46:20;1.20;;;0.80;;
13733;SDS011;43298;52.560;13.508;2023-07-24T08:48:47;0.98;;;0.70;;
13733;SDS011;43298;52.560;13.508;2023-07-24T08:51:14;1.05;;;0.93;;
13733;SDS011;43298;52.560;13.508;2023-07-24T08:53:49;1.55;;;1.05;;
13733;SDS011;43298;52.560;13.508;2023-07-24T08:56:16;1.15;;;0.90;;
13733;SDS011;43298;52.560;13.508;2023-07-24T08:58:42;2.10;;;0.82;;
13733;SDS011;43298;52.560;13.508;2023-07-24T09:01:07;0.77;;;0.60;;
13733;SDS011;43298;52.560;13.508;2023-07-24T09:03:34;1.48;;;1.00;;
13733;SDS011;43298;52.560;13.508;2023-07-24T09:06:01;0.95;;;0.95;;
13733;SDS011;43298;52.560;13.508;2023-07-24T09:08:39;1.00;;;0.90;;
13733;SDS011;43298;52.560;13.508;2023-07-24T09:11:07;1.13;;;0.60;;
13733;SDS011;43298;52.560;13.508;2023-07-24T09:13:35;1.58;;;0.90;;
13733;SDS011;43298;52.560;13.508;2023-07-24T09:16:03;1.92;;;1.23;;
13733;SDS011;43298;52.560;13.508;2023-07-24T09:18:39;4.53;;;0.90;;
13733;SDS011;43298;52.560;13.508;2023-07-24T09:21:07;1.08;;;0.80;;
13733;SDS011;43298;52.560;13.508;2023-07-24T09:23:37;0.98;;;0.88;;
13733;SDS011;43298;52.560;13.508;2023-07-24T09:26:06;1.88;;;0.82;;
13733;SDS011;43298;52.560;13.508;2023-07-24T09:28:32;1.67;;;0.85;;
13733;SDS011;43298;52.560;13.508;2023-07-24T09:30:59;0.82;;;0.77;;
13733;SDS011;43298;52.560;13.508;2023-07-24T09:33:36;0.60;;;0.60;;
13733;SDS011;43298;52.560;13.508;2023-07-24T09:36:06;0.70;;;0.70;;
13733;SDS011;43298;52.560;13.508;2023-07-24T09:38:34;0.77;;;0.70;;
13733;SDS011;43298;52.560;13.508;2023-07-24T09:41:04;1.70;;;0.80;;
13733;SDS011;43298;52.560;13.508;2023-07-24T09:43:31;1.27;;;1.05;;
13733;SDS011;43298;52.560;13.508;2023-07-24T09:46:00;1.05;;;0.90;;
13733;SDS011;43298;52.560;13.508;2023-07-24T09:48:28;1.48;;;1.02;;
13733;SDS011;43298;52.560;13.508;2023-07-24T09:50:56;1.23;;;1.13;;
13733;SDS011;43298;52.560;13.508;2023-07-24T09:53:33;0.88;;;0.63;;
13733;SDS011;43298;52.560;13.508;2023-07-24T09:56:09;1.77;;;1.00;;
13733;SDS011;43298;52.560;13.508;2023-07-24T10:01:04;1.20;;;1.00;;
13733;SDS011;43298;52.560;13.508;2023-07-24T10:03:39;1.92;;;1.23;;
13733;SDS011;43298;52.560;13.508;2023-07-24T10:06:12;1.55;;;1.17;;
13733;SDS011;43298;52.560;13.508;2023-07-24T10:08:42;1.17;;;1.00;;
13733;SDS011;43298;52.560;13.508;2023-07-24T10:11:13;1.00;;;0.90;;
13733;SDS011;43298;52.560;13.508;2023-07-24T10:16:09;0.90;;;0.85;;
13733;SDS011;43298;52.560;13.508;2023-07-24T10:18:40;1.02;;;0.93;;
13733;SDS011;43298;52.560;13.508;2023-07-24T10:21:10;1.10;;;0.98;;
13733;SDS011;43298;52.560;13.508;2023-07-24T10:26:07;2.53;;;1.60;;
13733;SDS011;43298;52.560;13.508;2023-07-24T10:28:38;0.90;;;0.90;;
13733;SDS011;43298;52.560;13.508;2023-07-24T10:31:26;1.48;;;1.20;;
13733;SDS011;43298;52.560;13.508;2023-07-24T10:33:52;1.85;;;0.82;;
13733;SDS011;43298;52.560;13.508;2023-07-24T10:36:20;1.20;;;1.00;;
13733;SDS011;43298;52.560;13.508;2023-07-24T10:38:52;2.47;;;1.27;;
13733;SDS011;43298;52.560;13.508;2023-07-24T10:43:51;1.50;;;1.05;;
13733;SDS011;43298;52.560;13.508;2023-07-24T10:46:34;1.55;;;1.00;;
13733;SDS011;43298;52.560;13.508;2023-07-24T10:49:02;2.13;;;1.13;;
13733;SDS011;43298;52.560;13.508;2023-07-24T10:51:29;1.45;;;1.30;;
13733;SDS011;43298;52.560;13.508;2023-07-24T10:53:58;2.10;;;1.27;;
13733;SDS011;43298;52.560;13.508;2023-07-24T10:58:52;1.55;;;1.13;;
13733;SDS011;43298;52.560;13.508;2023-07-24T11:03:46;1.85;;;1.45;;
13733;SDS011;43298;52.560;13.508;2023-07-24T11:06:15;1.52;;;1.23;;
13733;SDS011;43298;52.560;13.508;2023-07-24T11:08:50;2.72;;;1.17;;
13733;SDS011;43298;52.560;13.508;2023-07-24T11:11:27;2.15;;;1.63;;
13733;SDS011;43298;52.560;13.508;2023-07-24T11:13:58;1.90;;;1.13;;
13733;SDS011;43298;52.560;13.508;2023-07-24T11:16:25;2.58;;;1.80;;
13733;SDS011;43298;52.560;13.508;2023-07-24T11:18:51;2.28;;;1.75;;
13733;SDS011;43298;52.560;13.508;2023-07-24T11:21:17;2.47;;;1.65;;
13733;SDS011;43298;52.560;13.508;2023-07-24T11:23:48;1.67;;;1.30;;
13733;SDS011;43298;52.560;13.508;2023-07-24T11:26:17;4.03;;;1.85;;
13733;SDS011;43298;52.560;13.508;2023-07-24T11:28:45;2.72;;;1.65;;
13733;SDS011;43298;52.560;13.508;2023-07-24T11:31:11;2.15;;;1.55;;
13733;SDS011;43298;52.560;13.508;2023-07-24T11:33:37;3.20;;;1.52;;
13733;SDS011;43298;52.560;13.508;2023-07-24T11:36:04;1.67;;;1.58;;
13733;SDS011;43298;52.560;13.508;2023-07-24T11:38:31;2.50;;;1.50;;
13733;SDS011;43298;52.560;13.508;2023-07-24T11:40:56;2.40;;;1.33;;
13733;SDS011;43298;52.560;13.508;2023-07-24T11:43:23;1.60;;;1.20;;
13733;SDS011;43298;52.560;13.508;2023-07-24T11:45:51;4.95;;;1.55;;
13733;SDS011;43298;52.560;13.508;2023-07-24T11:48:19;2.08;;;1.60;;
13733;SDS011;43298;52.560;13.508;2023-07-24T11:50:47;2.75;;;1.67;;
13733;SDS011;43298;52.560;13.508;2023-07-24T11:53:19;2.75;;;1.50;;
13733;SDS011;43298;52.560;13.508;2023-07-24T11:55:48;1.70;;;1.02;;
13733;SDS011;43298;52.560;13.508;2023-07-24T11:58:17;2.35;;;1.52;;
13733;SDS011;43298;52.560;13.508;2023-07-24T12:00:45;2.05;;;1.58;;
13733;SDS011;43298;52.560;13.508;2023-07-24T12:03:13;2.33;;;1.75;;
13733;SDS011;43298;52.560;13.508;2023-07-24T12:05:51;2.60;;;1.65;;
13733;SDS011;43298;52.560;13.508;2023-07-24T12:08:21;2.05;;;1.42;;
13733;SDS011;43298;52.560;13.508;2023-07-24T12:10:56;5.45;;;1.80;;
13733;SDS011;43298;52.560;13.508;2023-07-24T12:13:23;2.10;;;1.60;;
13733;SDS011;43298;52.560;13.508;2023-07-24T12:15:49;2.00;;;1.77;;
13733;SDS011;43298;52.560;13.508;2023-07-24T12:18:15;1.75;;;1.25;;
13733;SDS011;43298;52.560;13.508;2023-07-24T12:20:41;2.60;;;1.60;;
13733;SDS011;43298;52.560;13.508;2023-07-24T12:23:06;4.05;;;1.85;;
13733;SDS011;43298;52.560;13.508;2023-07-24T12:25:32;1.77;;;1.33;;
13733;SDS011;43298;52.560;13.508;2023-07-24T12:27:58;3.45;;;1.42;;
13733;SDS011;43298;52.560;13.508;2023-07-24T12:30:24;2.53;;;2.00;;
13733;SDS011;43298;52.560;13.508;2023-07-24T12:32:50;3.72;;;2.10;;
13733;SDS011;43298;52.560;13.508;2023-07-24T12:35:16;4.22;;;1.70;;
13733;SDS011;43298;52.560;13.508;2023-07-24T12:37:42;2.05;;;1.48;;
13733;SDS011;43298;52.560;13.508;2023-07-24T12:40:10;3.08;;;2.28;;
13733;SDS011;43298;52.560;13.508;2023-07-24T12:42:36;3.05;;;1.70;;
13733;SDS011;43298;52.560;13.508;2023-07-24T12:45:02;1.90;;;1.55;;
13733;SDS011;43298;52.560;13.508;2023-07-24T12:47:29;1.92;;;1.67;;
13733;SDS011;43298;52.560;13.508;2023-07-24T12:49:56;2.22;;;1.80;;
13733;SDS011;43298;52.560;13.508;2023-07-24T12:52:24;3.13;;;1.70;;
13733;SDS011;43298;52.560;13.508;2023-07-24T12:54:50;1.52;;;1.30;;
13733;SDS011;43298;52.560;13.508;2023-07-24T12:57:16;3.03;;;1.50;;
13733;SDS011;43298;52.560;13.508;2023-07-24T12:59:42;1.60;;;1.30;;
13733;SDS011;43298;52.560;13.508;2023-07-24T13:02:08;5.05;;;2.42;;
13733;SDS011;43298;52.560;13.508;2023-07-24T13:04:34;3.85;;;2.10;;
13733;SDS011;43298;52.560;13.508;2023-07-24T13:07:00;2.35;;;1.85;;
13733;SDS011;43298;52.560;13.508;2023-07-24T13:09:27;2.88;;;1.73;;
13733;SDS011;43298;52.560;13.508;2023-07-24T13:11:53;2.33;;;1.90;;
13733;SDS011;43298;52.560;13.508;2023-07-24T13:14:19;3.03;;;1.80;;
13733;SDS011;43298;52.560;13.508;2023-07-24T13:16:46;6.10;;;1.80;;
13733;SDS011;43298;52.560;13.508;2023-07-24T13:19:13;2.83;;;1.88;;
13733;SDS011;43298;52.560;13.508;2023-07-24T13:21:39;1.73;;;1.63;;
13733;SDS011;43298;52.560;13.508;2023-07-24T13:24:05;2.83;;;1.90;;
13733;SDS011;43298;52.560;13.508;2023-07-24T13:26:32;3.70;;;1.42;;
13733;SDS011;43298;52.560;13.508;2023-07-24T13:28:58;2.40;;;1.98;;
13733;SDS011;43298;52.560;13.508;2023-07-24T13:31:24;1.70;;;1.50;;
13733;SDS011;43298;52.560;13.508;2023-07-24T13:33:50;1.50;;;1.23;;
13733;SDS011;43298;52.560;13.508;2023-07-24T13:36:16;2.03;;;1.75;;
13733;SDS011;43298;52.560;13.508;2023-07-24T13:38:41;2.47;;;1.42;;
13733;SDS011;43298;52.560;13.508;2023-07-24T13:41:07;4.45;;;1.80;;
13733;SDS011;43298;52.560;13.508;2023-07-24T13:43:33;3.22;;;1.80;;
13733;SDS011;43298;52.560;13.508;2023-07-24T13:45:59;2.13;;;1.65;;
13733;SDS011;43298;52.560;13.508;2023-07-24T13:48:27;3.35;;;1.70;;
13733;SDS011;43298;52.560;13.508;2023-07-24T13:50:54;1.73;;;1.38;;
13733;SDS011;43298;52.560;13.508;2023-07-24T13:53:20;1.60;;;1.20;;
13733;SDS011;43298;52.560;13.508;2023-07-24T13:55:46;1.70;;;1.48;;
13733;SDS011;43298;52.560;13.508;2023-07-24T13:58:12;1.73;;;1.40;;
13733;SDS011;43298;52.560;13.508;2023-07-24T14:00:38;1.70;;;1.30;;
13733;SDS011;43298;52.560;13.508;2023-07-24T14:03:04;1.50;;;1.20;;
13733;SDS011;43298;52.560;13.508;2023-07-24T14:05:30;1.73;;;1.50;;
13733;SDS011;43298;52.560;13.508;2023-07-24T14:07:57;1.55;;;1.38;;
13733;SDS011;43298;52.560;13.508;2023-07-24T14:10:23;1.67;;;1.48;;
13733;SDS011;43298;52.560;13.508;2023-07-24T14:12:49;1.75;;;1.52;;
13733;SDS011;43298;52.560;13.508;2023-07-24T14:15:14;2.28;;;1.50;;
13733;SDS011;43298;52.560;13.508;2023-07-24T14:17:40;2.17;;;1.38;;
13733;SDS011;43298;52.560;13.508;2023-07-24T14:20:06;1.98;;;1.27;;
13733;SDS011;43298;52.560;13.508;2023-07-24T14:22:33;1.20;;;1.10;;
13733;SDS011;43298;52.560;13.508;2023-07-24T14:24:58;2.25;;;1.33;;
13733;SDS011;43298;52.560;13.508;2023-07-24T14:27:24;1.67;;;1.33;;
13733;SDS011;43298;52.560;13.508;2023-07-24T14:29:50;2.85;;;1.45;;
13733;SDS011;43298;52.560;13.508;2023-07-24T14:32:16;1.83;;;0.95;;
13733;SDS011;43298;52.560;13.508;2023-07-24T14:34:42;2.35;;;1.45;;
13733;SDS011;43298;52.560;13.508;2023-07-24T14:37:07;2.22;;;1.30;;
13733;SDS011;43298;52.560;13.508;2023-07-24T14:39:33;1.98;;;1.23;;
13733;SDS011;43298;52.560;13.508;2023-07-24T14:41:59;1.38;;;1.05;;
13733;SDS011;43298;52.560;13.508;2023-07-24T14:44:25;2.00;;;1.52;;
13733;SDS011;43298;52.560;13.508;2023-07-24T14:46:51;2.05;;;1.58;;
13733;SDS011;43298;52.560;13.508;2023-07-24T14:49:17;1.42;;;1.10;;
13733;SDS011;43298;52.560;13.508;2023-07-24T14:51:43;2.20;;;1.38;;
13733;SDS011;43298;52.560;13.508;2023-07-24T14:54:09;1.33;;;1.23;;